Main page
METAR-TAF:

METAR-TAF

Airports :

Sukkur, Pakistan

Sukkur Airport

latitude: 27-43-19N, longitude: 068-47-31E, elevation: 60 m

Current weather observation

The report was made 19 minutes ago, at 10:00 UTC
Wind 8 kt from the Northeast
Temperature 40°C
Humidity 46%
Pressure 997 hPa
Visibility: 4000 m
haze

METAR: OPSK 211000Z 05008KT 4000 HZ NSC 40/26 Q0997 NOSIG

Time: 15:19 (10:19 UTC)

Forecast

The report was made 6 hours and 19 minutes ago, at 04:00 UTC
Forecast valid from 21 at 06 UTC to 22 at 06 UTC
Wind 10 kt from the East/Northeast
Visibility: 5000 m
haze
From UTC
Wind 7 kt from the Southeast
Visibility: 4000 m
Scattered clouds at a height of 3000 ft
haze
Temporary
from 22 at 00 UTC to 22 at 04 UTC
Wind 5 kt from the Southeast
Visibility: 4000 m
Scattered clouds at a height of 10000 ft
haze

TAF: OPSK 210400Z 2106/2206 06010KT 5000 HZ NSC FM 211600 13007KT 4000 HZ SCT030 TEMPO 2200/2204 13005KT 4000 HZ SCT100

Weather observations and forecasts of more than 4000 airports (METAR and TAF reports).

The available stations are represented by yellow and red dots on the map.

Hover mouse over dot to see the name of the station.

Then click to see weather observations and forecasts.

To change the map : click on the green buttons with a black cross to zoom in, on the green button with a dash to zoom out, or on the green arrows for adjacent maps.


METAR-TAF: